sensor_id;sensor_type;location;lat;lon;timestamp;pressure;altitude;pressure_sealevel;temperature;humidity
13968;BME280;39536;52.198;9.920;2023-07-08T00:01:36;101106.34;;;21.79;100.00
13968;BME280;39536;52.198;9.920;2023-07-08T00:04:03;101106.13;;;21.82;100.00
13968;BME280;39536;52.198;9.920;2023-07-08T00:06:30;101111.78;;;21.78;100.00
13968;BME280;39536;52.198;9.920;2023-07-08T00:08:56;101110.59;;;21.69;100.00
13968;BME280;39536;52.198;9.920;2023-07-08T00:11:23;101105.72;;;21.63;100.00
13968;BME280;39536;52.198;9.920;2023-07-08T00:13:50;101106.16;;;21.70;100.00
13968;BME280;39536;52.198;9.920;2023-07-08T00:16:18;101109.44;;;21.60;100.00
13968;BME280;39536;52.198;9.920;2023-07-08T00:18:46;101102.88;;;21.66;100.00
13968;BME280;39536;52.198;9.920;2023-07-08T00:21:15;101099.25;;;21.67;100.00
13968;BME280;39536;52.198;9.920;2023-07-08T00:23:43;101101.06;;;21.54;100.00
13968;BME280;39536;52.198;9.920;2023-07-08T00:26:13;101100.22;;;21.53;100.00
13968;BME280;39536;52.198;9.920;2023-07-08T00:28:42;101101.06;;;21.54;100.00
13968;BME280;39536;52.198;9.920;2023-07-08T00:31:09;101103.19;;;21.49;100.00
13968;BME280;39536;52.198;9.920;2023-07-08T00:33:36;101103.31;;;21.47;100.00
13968;BME280;39536;52.198;9.920;2023-07-08T00:36:09;101100.66;;;21.47;100.00
13968;BME280;39536;52.198;9.920;2023-07-08T00:38:37;101097.56;;;21.53;100.00
13968;BME280;39536;52.198;9.920;2023-07-08T00:41:08;101099.00;;;21.06;100.00
13968;BME280;39536;52.198;9.920;2023-07-08T00:43:38;101089.84;;;20.85;100.00
13968;BME280;39536;52.198;9.920;2023-07-08T00:46:16;101091.88;;;20.94;100.00
13968;BME280;39536;52.198;9.920;2023-07-08T00:48:47;101099.50;;;20.98;100.00
13968;BME280;39536;52.198;9.920;2023-07-08T00:51:17;101088.94;;;20.71;100.00
13968;BME280;39536;52.198;9.920;2023-07-08T00:53:45;101091.28;;;20.63;100.00
13968;BME280;39536;52.198;9.920;2023-07-08T00:56:19;101092.31;;;20.61;100.00
13968;BME280;39536;52.198;9.920;2023-07-08T00:58:51;101093.91;;;20.63;100.00
13968;BME280;39536;52.198;9.920;2023-07-08T01:01:19;101089.34;;;20.65;100.00
13968;BME280;39536;52.198;9.920;2023-07-08T01:03:50;101095.19;;;20.70;100.00
13968;BME280;39536;52.198;9.920;2023-07-08T01:06:21;101088.31;;;20.68;100.00
13968;BME280;39536;52.198;9.920;2023-07-08T01:08:57;101089.03;;;20.57;100.00
13968;BME280;39536;52.198;9.920;2023-07-08T01:11:24;101087.78;;;20.48;100.00
13968;BME280;39536;52.198;9.920;2023-07-08T01:13:51;101088.47;;;20.52;100.00
13968;BME280;39536;52.198;9.920;2023-07-08T01:16:18;101076.84;;;20.40;100.00
13968;BME280;39536;52.198;9.920;2023-07-08T01:18:45;101079.28;;;20.43;100.00
13968;BME280;39536;52.198;9.920;2023-07-08T01:21:31;101071.78;;;20.64;100.00
13968;BME280;39536;52.198;9.920;2023-07-08T01:24:02;101076.03;;;20.67;100.00
13968;BME280;39536;52.198;9.920;2023-07-08T01:26:31;101069.56;;;20.71;100.00
13968;BME280;39536;52.198;9.920;2023-07-08T01:28:59;101068.84;;;20.69;100.00
13968;BME280;39536;52.198;9.920;2023-07-08T01:31:26;101069.25;;;20.63;100.00
13968;BME280;39536;52.198;9.920;2023-07-08T01:33:53;101065.56;;;20.51;100.00
13968;BME280;39536;52.198;9.920;2023-07-08T01:36:20;101069.47;;;20.45;100.00
13968;BME280;39536;52.198;9.920;2023-07-08T01:38:47;101064.78;;;20.36;100.00
13968;BME280;39536;52.198;9.920;2023-07-08T01:41:16;101067.81;;;20.30;100.00
13968;BME280;39536;52.198;9.920;2023-07-08T01:43:43;101066.22;;;20.27;100.00
13968;BME280;39536;52.198;9.920;2023-07-08T01:46:24;101065.34;;;20.41;100.00
13968;BME280;39536;52.198;9.920;2023-07-08T01:48:54;101059.88;;;20.30;100.00
13968;BME280;39536;52.198;9.920;2023-07-08T01:51:21;101056.78;;;20.23;100.00
13968;BME280;39536;52.198;9.920;2023-07-08T01:53:49;101060.06;;;20.27;100.00
13968;BME280;39536;52.198;9.920;2023-07-08T01:56:17;101060.66;;;20.18;100.00
13968;BME280;39536;52.198;9.920;2023-07-08T01:58:44;101062.66;;;20.14;100.00
13968;BME280;39536;52.198;9.920;2023-07-08T02:01:10;101051.13;;;20.15;100.00
13968;BME280;39536;52.198;9.920;2023-07-08T02:03:37;101056.72;;;20.11;100.00
13968;BME280;39536;52.198;9.920;2023-07-08T02:06:06;101055.25;;;19.92;100.00
13968;BME280;39536;52.198;9.920;2023-07-08T02:08:33;101047.84;;;19.70;100.00
13968;BME280;39536;52.198;9.920;2023-07-08T02:10:59;101042.34;;;19.73;100.00
13968;BME280;39536;52.198;9.920;2023-07-08T02:13:27;101045.19;;;19.84;100.00
13968;BME280;39536;52.198;9.920;2023-07-08T02:15:54;101041.28;;;19.90;100.00
13968;BME280;39536;52.198;9.920;2023-07-08T02:18:21;101041.84;;;19.95;100.00
13968;BME280;39536;52.198;9.920;2023-07-08T02:20:48;101029.47;;;19.96;100.00
13968;BME280;39536;52.198;9.920;2023-07-08T02:23:15;101034.88;;;19.94;100.00
13968;BME280;39536;52.198;9.920;2023-07-08T02:25:50;101043.66;;;19.80;100.00
13968;BME280;39536;52.198;9.920;2023-07-08T02:28:16;101052.81;;;19.75;100.00
13968;BME280;39536;52.198;9.920;2023-07-08T02:30:44;101045.84;;;19.88;100.00
13968;BME280;39536;52.198;9.920;2023-07-08T02:33:11;101045.63;;;19.91;100.00
13968;BME280;39536;52.198;9.920;2023-07-08T02:35:38;101038.44;;;19.93;100.00
13968;BME280;39536;52.198;9.920;2023-07-08T02:38:04;101033.34;;;19.90;100.00
13968;BME280;39536;52.198;9.920;2023-07-08T02:40:31;101041.97;;;19.79;100.00
13968;BME280;39536;52.198;9.920;2023-07-08T02:42:58;101042.03;;;19.78;100.00
13968;BME280;39536;52.198;9.920;2023-07-08T02:45:24;101044.69;;;19.78;100.00
13968;BME280;39536;52.198;9.920;2023-07-08T02:47:52;101043.50;;;19.69;100.00
13968;BME280;39536;52.198;9.920;2023-07-08T02:50:19;101042.13;;;19.62;100.00
13968;BME280;39536;52.198;9.920;2023-07-08T02:52:45;101036.88;;;19.48;100.00
13968;BME280;39536;52.198;9.920;2023-07-08T02:55:12;101040.81;;;19.41;100.00
13968;BME280;39536;52.198;9.920;2023-07-08T02:57:38;101042.81;;;19.37;100.00
13968;BME280;39536;52.198;9.920;2023-07-08T03:00:06;101042.97;;;19.05;100.00
13968;BME280;39536;52.198;9.920;2023-07-08T03:02:33;101041.28;;;19.19;100.00
13968;BME280;39536;52.198;9.920;2023-07-08T03:05:01;101043.19;;;19.17;100.00
13968;BME280;39536;52.198;9.920;2023-07-08T03:07:30;101042.19;;;19.03;100.00
13968;BME280;39536;52.198;9.920;2023-07-08T03:09:57;101041.72;;;18.97;100.00
13968;BME280;39536;52.198;9.920;2023-07-08T03:12:23;101037.09;;;19.00;100.00
13968;BME280;39536;52.198;9.920;2023-07-08T03:14:50;101036.66;;;19.08;100.00
13968;BME280;39536;52.198;9.920;2023-07-08T03:17:16;101035.13;;;18.89;100.00
13968;BME280;39536;52.198;9.920;2023-07-08T03:19:44;101042.56;;;18.83;100.00
13968;BME280;39536;52.198;9.920;2023-07-08T03:22:12;101038.41;;;18.79;100.00
13968;BME280;39536;52.198;9.920;2023-07-08T03:24:39;101036.50;;;18.81;100.00
13968;BME280;39536;52.198;9.920;2023-07-08T03:27:11;101037.06;;;18.56;100.00
13968;BME280;39536;52.198;9.920;2023-07-08T03:29:38;101041.31;;;18.58;100.00
13968;BME280;39536;52.198;9.920;2023-07-08T03:32:06;101035.09;;;18.59;100.00
13968;BME280;39536;52.198;9.920;2023-07-08T03:34:34;101043.50;;;18.36;100.00
13968;BME280;39536;52.198;9.920;2023-07-08T03:37:00;101038.59;;;18.44;100.00
13968;BME280;39536;52.198;9.920;2023-07-08T03:39:28;101038.31;;;18.64;100.00
13968;BME280;39536;52.198;9.920;2023-07-08T03:41:56;101040.69;;;18.85;100.00
13968;BME280;39536;52.198;9.920;2023-07-08T03:44:23;101038.13;;;18.83;100.00
13968;BME280;39536;52.198;9.920;2023-07-08T03:46:50;101039.31;;;18.78;100.00
13968;BME280;39536;52.198;9.920;2023-07-08T03:49:17;101042.72;;;18.80;100.00
13968;BME280;39536;52.198;9.920;2023-07-08T03:51:49;101043.44;;;18.98;100.00
13968;BME280;39536;52.198;9.920;2023-07-08T03:54:18;101045.41;;;19.08;100.00
13968;BME280;39536;52.198;9.920;2023-07-08T03:56:46;101047.69;;;19.14;100.00
13968;BME280;39536;52.198;9.920;2023-07-08T03:59:13;101048.16;;;19.07;100.00
13968;BME280;39536;52.198;9.920;2023-07-08T04:01:39;101048.84;;;19.10;100.00
13968;BME280;39536;52.198;9.920;2023-07-08T04:04:08;101051.84;;;19.19;100.00
13968;BME280;39536;52.198;9.920;2023-07-08T04:06:35;101044.31;;;19.27;100.00
13968;BME280;39536;52.198;9.920;2023-07-08T04:09:01;101044.47;;;19.09;100.00
13968;BME280;39536;52.198;9.920;2023-07-08T04:11:28;101038.94;;;19.14;100.00
13968;BME280;39536;52.198;9.920;2023-07-08T04:13:56;101037.69;;;19.05;100.00
13968;BME280;39536;52.198;9.920;2023-07-08T04:16:25;101039.00;;;18.98;100.00
13968;BME280;39536;52.198;9.920;2023-07-08T04:18:53;101045.53;;;19.07;100.00
13968;BME280;39536;52.198;9.920;2023-07-08T04:21:20;101050.03;;;19.05;100.00
13968;BME280;39536;52.198;9.920;2023-07-08T04:23:47;101052.28;;;18.97;100.00
13968;BME280;39536;52.198;9.920;2023-07-08T04:26:15;101047.88;;;18.97;100.00
13968;BME280;39536;52.198;9.920;2023-07-08T04:28:41;101046.44;;;19.06;100.00
13968;BME280;39536;52.198;9.920;2023-07-08T04:31:09;101052.28;;;18.97;100.00
13968;BME280;39536;52.198;9.920;2023-07-08T04:33:36;101053.16;;;19.11;100.00
13968;BME280;39536;52.198;9.920;2023-07-08T04:36:04;101051.28;;;19.28;100.00
13968;BME280;39536;52.198;9.920;2023-07-08T04:38:31;101052.81;;;19.32;100.00
13968;BME280;39536;52.198;9.920;2023-07-08T04:41:01;101047.81;;;19.27;100.00
13968;BME280;39536;52.198;9.920;2023-07-08T04:43:28;101045.19;;;19.42;100.00
13968;BME280;39536;52.198;9.920;2023-07-08T04:45:55;101047.63;;;19.45;100.00
13968;BME280;39536;52.198;9.920;2023-07-08T04:48:24;101051.69;;;19.36;100.00
13968;BME280;39536;52.198;9.920;2023-07-08T04:50:53;101049.06;;;19.50;100.00
13968;BME280;39536;52.198;9.920;2023-07-08T04:53:20;101047.63;;;19.73;100.00
13968;BME280;39536;52.198;9.920;2023-07-08T04:55:49;101054.53;;;19.76;100.00
13968;BME280;39536;52.198;9.920;2023-07-08T04:58:16;101055.66;;;19.72;100.00
13968;BME280;39536;52.198;9.920;2023-07-08T05:00:43;101062.19;;;19.66;100.00
13968;BME280;39536;52.198;9.920;2023-07-08T05:03:09;101061.50;;;19.63;100.00
13968;BME280;39536;52.198;9.920;2023-07-08T05:05:37;101058.97;;;19.75;100.00
13968;BME280;39536;52.198;9.920;2023-07-08T05:08:05;101063.97;;;19.80;100.00
13968;BME280;39536;52.198;9.920;2023-07-08T05:10:32;101064.16;;;19.77;100.00
13968;BME280;39536;52.198;9.920;2023-07-08T05:12:59;101067.09;;;19.72;100.00
13968;BME280;39536;52.198;9.920;2023-07-08T05:15:26;101067.47;;;19.66;100.00
13968;BME280;39536;52.198;9.920;2023-07-08T05:17:53;101064.06;;;19.78;100.00
13968;BME280;39536;52.198;9.920;2023-07-08T05:20:19;101064.16;;;19.63;100.00
13968;BME280;39536;52.198;9.920;2023-07-08T05:22:49;101067.19;;;19.71;100.00
13968;BME280;39536;52.198;9.920;2023-07-08T05:25:18;101069.63;;;19.88;100.00
13968;BME280;39536;52.198;9.920;2023-07-08T05:27:45;101068.09;;;19.84;100.00
13968;BME280;39536;52.198;9.920;2023-07-08T05:30:13;101062.22;;;19.93;100.00
13968;BME280;39536;52.198;9.920;2023-07-08T05:32:40;101065.03;;;20.19;100.00
13968;BME280;39536;52.198;9.920;2023-07-08T05:35:07;101051.69;;;20.20;100.00
13968;BME280;39536;52.198;9.920;2023-07-08T05:37:34;101060.19;;;20.25;100.00
13968;BME280;39536;52.198;9.920;2023-07-08T05:40:02;101051.75;;;20.33;100.00
13968;BME280;39536;52.198;9.920;2023-07-08T05:42:30;101050.38;;;20.40;100.00
13968;BME280;39536;52.198;9.920;2023-07-08T05:44:56;101049.44;;;20.41;100.00
13968;BME280;39536;52.198;9.920;2023-07-08T05:47:23;101049.13;;;20.60;100.00
13968;BME280;39536;52.198;9.920;2023-07-08T05:49:50;101059.00;;;20.84;100.00
13968;BME280;39536;52.198;9.920;2023-07-08T05:52:16;101051.09;;;21.09;100.00
13968;BME280;39536;52.198;9.920;2023-07-08T05:54:43;101056.72;;;21.17;100.00
13968;BME280;39536;52.198;9.920;2023-07-08T05:57:11;101048.56;;;21.46;100.00
13968;BME280;39536;52.198;9.920;2023-07-08T05:59:38;101055.78;;;21.31;100.00
13968;BME280;39536;52.198;9.920;2023-07-08T06:02:06;101053.44;;;21.39;100.00
13968;BME280;39536;52.198;9.920;2023-07-08T06:04:33;101046.66;;;21.48;100.00
13968;BME280;39536;52.198;9.920;2023-07-08T06:06:59;101057.47;;;21.45;100.00
13968;BME280;39536;52.198;9.920;2023-07-08T06:09:26;101050.91;;;21.51;100.00
13968;BME280;39536;52.198;9.920;2023-07-08T06:11:53;101044.84;;;21.49;100.00
13968;BME280;39536;52.198;9.920;2023-07-08T06:14:20;101050.28;;;21.47;100.00
13968;BME280;39536;52.198;9.920;2023-07-08T06:16:47;101046.88;;;21.45;100.00
13968;BME280;39536;52.198;9.920;2023-07-08T06:19:14;101050.56;;;21.55;100.00
13968;BME280;39536;52.198;9.920;2023-07-08T06:21:42;101055.00;;;21.67;100.00
13968;BME280;39536;52.198;9.920;2023-07-08T06:24:09;101055.00;;;21.67;100.00
13968;BME280;39536;52.198;9.920;2023-07-08T06:26:36;101047.03;;;21.80;100.00
13968;BME280;39536;52.198;9.920;2023-07-08T06:29:03;101045.81;;;21.97;100.00
13968;BME280;39536;52.198;9.920;2023-07-08T06:31:31;101049.63;;;22.06;100.00
13968;BME280;39536;52.198;9.920;2023-07-08T06:33:58;101046.44;;;22.01;100.00
13968;BME280;39536;52.198;9.920;2023-07-08T06:36:24;101052.25;;;22.19;100.00
13968;BME280;39536;52.198;9.920;2023-07-08T06:38:51;101052.44;;;22.28;100.00
13968;BME280;39536;52.198;9.920;2023-07-08T06:41:18;101049.13;;;22.49;100.00
13968;BME280;39536;52.198;9.920;2023-07-08T06:43:44;101052.91;;;22.57;100.00
13968;BME280;39536;52.198;9.920;2023-07-08T06:46:11;101053.13;;;22.54;100.00
13968;BME280;39536;52.198;9.920;2023-07-08T06:48:39;101063.75;;;22.78;100.00
13968;BME280;39536;52.198;9.920;2023-07-08T06:51:06;101052.28;;;22.89;100.00
13968;BME280;39536;52.198;9.920;2023-07-08T06:53:33;101062.31;;;22.86;100.00
13968;BME280;39536;52.198;9.920;2023-07-08T06:55:59;101051.91;;;22.71;100.00
13968;BME280;39536;52.198;9.920;2023-07-08T06:58:27;101052.06;;;22.92;100.00
13968;BME280;39536;52.198;9.920;2023-07-08T07:00:54;101052.91;;;22.93;100.00
13968;BME280;39536;52.198;9.920;2023-07-08T07:03:20;101055.88;;;23.12;100.00
13968;BME280;39536;52.198;9.920;2023-07-08T07:05:48;101051.06;;;23.28;100.00
13968;BME280;39536;52.198;9.920;2023-07-08T07:08:15;101052.16;;;23.37;100.00
13968;BME280;39536;52.198;9.920;2023-07-08T07:10:44;101051.31;;;23.25;100.00
13968;BME280;39536;52.198;9.920;2023-07-08T07:13:11;101054.22;;;23.34;100.00
13968;BME280;39536;52.198;9.920;2023-07-08T07:15:58;101050.59;;;23.57;100.00
13968;BME280;39536;52.198;9.920;2023-07-08T07:18:40;101051.34;;;23.70;100.00
13968;BME280;39536;52.198;9.920;2023-07-08T07:21:15;101042.50;;;23.81;100.00
13968;BME280;39536;52.198;9.920;2023-07-08T07:26:28;101040.22;;;24.20;100.00
13968;BME280;39536;52.198;9.920;2023-07-08T07:28:56;101048.41;;;24.39;100.00
13968;BME280;39536;52.198;9.920;2023-07-08T07:31:23;101047.16;;;24.55;100.00
13968;BME280;39536;52.198;9.920;2023-07-08T07:33:50;101042.34;;;24.70;100.00
13968;BME280;39536;52.198;9.920;2023-07-08T07:36:17;101046.59;;;24.72;100.00
13968;BME280;39536;52.198;9.920;2023-07-08T07:38:45;101054.03;;;24.89;100.00
13968;BME280;39536;52.198;9.920;2023-07-08T07:41:13;101045.50;;;24.96;100.00
13968;BME280;39536;52.198;9.920;2023-07-08T07:43:40;101042.91;;;25.05;100.00
13968;BME280;39536;52.198;9.920;2023-07-08T07:46:06;101042.03;;;25.26;100.00
13968;BME280;39536;52.198;9.920;2023-07-08T07:48:33;101037.47;;;25.38;100.00
13968;BME280;39536;52.198;9.920;2023-07-08T07:51:00;101036.28;;;25.51;100.00
13968;BME280;39536;52.198;9.920;2023-07-08T07:53:28;101036.13;;;25.53;100.00
13968;BME280;39536;52.198;9.920;2023-07-08T07:55:58;101039.25;;;25.58;100.00
13968;BME280;39536;52.198;9.920;2023-07-08T07:58:25;101034.16;;;25.45;100.00
13968;BME280;39536;52.198;9.920;2023-07-08T08:00:52;101037.41;;;25.58;100.00
13968;BME280;39536;52.198;9.920;2023-07-08T08:03:21;101040.97;;;25.78;100.00
13968;BME280;39536;52.198;9.920;2023-07-08T08:05:48;101035.28;;;25.83;100.00
13968;BME280;39536;52.198;9.920;2023-07-08T08:08:15;101033.59;;;25.92;100.00
13968;BME280;39536;52.198;9.920;2023-07-08T08:10:43;101039.94;;;26.20;100.00
13968;BME280;39536;52.198;9.920;2023-07-08T08:13:10;101034.22;;;26.15;100.00
13968;BME280;39536;52.198;9.920;2023-07-08T08:15:38;101040.53;;;26.23;100.00
13968;BME280;39536;52.198;9.920;2023-07-08T08:18:04;101043.63;;;26.19;100.00
13968;BME280;39536;52.198;9.920;2023-07-08T08:20:31;101040.00;;;26.39;100.00
13968;BME280;39536;52.198;9.920;2023-07-08T08:22:58;101040.00;;;26.59;100.00
13968;BME280;39536;52.198;9.920;2023-07-08T08:25:24;101045.06;;;26.71;100.00
13968;BME280;39536;52.198;9.920;2023-07-08T08:27:53;101045.91;;;26.72;100.00
13968;BME280;39536;52.198;9.920;2023-07-08T08:30:19;101051.13;;;26.74;100.00
13968;BME280;39536;52.198;9.920;2023-07-08T08:32:46;101050.53;;;26.89;100.00
13968;BME280;39536;52.198;9.920;2023-07-08T08:35:12;101051.06;;;27.03;100.00
13968;BME280;39536;52.198;9.920;2023-07-08T08:37:39;101052.16;;;27.10;100.00
13968;BME280;39536;52.198;9.920;2023-07-08T08:40:10;101047.38;;;27.13;100.00
13968;BME280;39536;52.198;9.920;2023-07-08T08:42:40;101041.59;;;27.28;100.00
13968;BME280;39536;52.198;9.920;2023-07-08T08:45:15;101051.28;;;27.29;97.08
13968;BME280;39536;52.198;9.920;2023-07-08T08:47:44;101045.47;;;27.43;98.85
13968;BME280;39536;52.198;9.920;2023-07-08T08:50:26;101041.22;;;27.50;97.47
13968;BME280;39536;52.198;9.920;2023-07-08T08:52:55;101039.66;;;27.57;94.76
13968;BME280;39536;52.198;9.920;2023-07-08T08:55:24;101039.38;;;27.51;97.04
13968;BME280;39536;52.198;9.920;2023-07-08T08:57:57;101043.41;;;27.64;97.02
13968;BME280;39536;52.198;9.920;2023-07-08T09:00:37;101039.28;;;27.80;96.07
13968;BME280;39536;52.198;9.920;2023-07-08T09:03:10;101047.47;;;27.96;97.26
13968;BME280;39536;52.198;9.920;2023-07-08T09:05:38;101037.94;;;28.12;96.00
13968;BME280;39536;52.198;9.920;2023-07-08T09:08:13;101037.78;;;28.13;96.12
13968;BME280;39536;52.198;9.920;2023-07-08T09:10:45;101037.63;;;28.15;94.32
13968;BME280;39536;52.198;9.920;2023-07-08T09:13:16;101036.81;;;28.32;95.45
13968;BME280;39536;52.198;9.920;2023-07-08T09:15:47;101036.59;;;28.43;91.29
13968;BME280;39536;52.198;9.920;2023-07-08T09:18:21;101038.44;;;28.43;94.74
13968;BME280;39536;52.198;9.920;2023-07-08T09:20:52;101033.50;;;28.38;93.10
13968;BME280;39536;52.198;9.920;2023-07-08T09:23:24;101037.19;;;28.55;93.13
13968;BME280;39536;52.198;9.920;2023-07-08T09:26:01;101027.06;;;28.67;91.17
13968;BME280;39536;52.198;9.920;2023-07-08T09:28:39;101034.72;;;28.80;89.22
13968;BME280;39536;52.198;9.920;2023-07-08T09:31:20;101028.00;;;29.02;87.49
13968;BME280;39536;52.198;9.920;2023-07-08T09:33:50;101024.56;;;28.91;88.75
13968;BME280;39536;52.198;9.920;2023-07-08T09:36:19;101026.75;;;29.14;89.34
13968;BME280;39536;52.198;9.920;2023-07-08T09:38:49;101018.84;;;29.12;86.14
13968;BME280;39536;52.198;9.920;2023-07-08T09:41:29;101024.31;;;29.03;90.55
13968;BME280;39536;52.198;9.920;2023-07-08T09:44:04;101030.25;;;29.14;88.05
13968;BME280;39536;52.198;9.920;2023-07-08T09:46:36;101021.13;;;29.33;84.61
13968;BME280;39536;52.198;9.920;2023-07-08T09:49:16;101025.53;;;29.42;87.19
13968;BME280;39536;52.198;9.920;2023-07-08T09:51:43;101029.94;;;29.52;81.85
13968;BME280;39536;52.198;9.920;2023-07-08T09:54:09;101020.44;;;29.65;82.18
13968;BME280;39536;52.198;9.920;2023-07-08T09:56:40;101023.88;;;29.76;81.48
13968;BME280;39536;52.198;9.920;2023-07-08T09:59:12;101018.50;;;29.84;81.53
13968;BME280;39536;52.198;9.920;2023-07-08T10:01:42;101017.38;;;30.03;79.20
13968;BME280;39536;52.198;9.920;2023-07-08T10:04:09;101019.63;;;30.24;78.99
13968;BME280;39536;52.198;9.920;2023-07-08T10:06:37;101013.75;;;30.36;77.07
13968;BME280;39536;52.198;9.920;2023-07-08T10:09:08;101017.94;;;30.55;75.10
13968;BME280;39536;52.198;9.920;2023-07-08T10:11:41;101015.25;;;30.55;73.40
13968;BME280;39536;52.198;9.920;2023-07-08T10:14:12;101020.63;;;30.64;72.05
13968;BME280;39536;52.198;9.920;2023-07-08T10:16:46;101007.53;;;30.69;72.39
13968;BME280;39536;52.198;9.920;2023-07-08T10:19:15;101011.06;;;30.77;69.50
13968;BME280;39536;52.198;9.920;2023-07-08T10:21:49;101022.31;;;30.89;74.64
13968;BME280;39536;52.198;9.920;2023-07-08T10:24:28;101014.88;;;31.08;71.27
13968;BME280;39536;52.198;9.920;2023-07-08T10:27:07;101015.69;;;31.16;67.29
13968;BME280;39536;52.198;9.920;2023-07-08T10:29:43;101010.09;;;31.26;63.66
13968;BME280;39536;52.198;9.920;2023-07-08T10:32:20;101014.50;;;31.19;61.99
13968;BME280;39536;52.198;9.920;2023-07-08T10:34:54;101018.00;;;31.27;61.60
13968;BME280;39536;52.198;9.920;2023-07-08T10:37:31;101014.75;;;31.48;60.46
13968;BME280;39536;52.198;9.920;2023-07-08T10:40:12;101017.41;;;31.57;59.37
13968;BME280;39536;52.198;9.920;2023-07-08T10:45:47;101014.72;;;31.88;56.14
13968;BME280;39536;52.198;9.920;2023-07-08T10:51:14;101004.41;;;32.00;53.82
13968;BME280;39536;52.198;9.920;2023-07-08T10:54:03;101005.28;;;32.15;56.52
13968;BME280;39536;52.198;9.920;2023-07-08T10:56:39;101008.66;;;32.17;53.42
13968;BME280;39536;52.198;9.920;2023-07-08T10:59:20;101008.00;;;32.38;52.03
13968;BME280;39536;52.198;9.920;2023-07-08T11:02:01;101006.00;;;32.55;51.29
13968;BME280;39536;52.198;9.920;2023-07-08T11:04:47;101004.00;;;32.86;51.96
13968;BME280;39536;52.198;9.920;2023-07-08T11:07:29;101004.31;;;32.92;52.33
13968;BME280;39536;52.198;9.920;2023-07-08T11:10:00;101011.00;;;32.96;51.82
13968;BME280;39536;52.198;9.920;2023-07-08T11:12:33;101003.03;;;33.17;50.49
13968;BME280;39536;52.198;9.920;2023-07-08T11:15:07;100990.63;;;33.38;46.72
13968;BME280;39536;52.198;9.920;2023-07-08T11:17:43;100997.31;;;33.42;48.26
13968;BME280;39536;52.198;9.920;2023-07-08T11:20:17;100991.75;;;33.43;45.32
13968;BME280;39536;52.198;9.920;2023-07-08T11:22:49;100983.75;;;33.50;45.65
13968;BME280;39536;52.198;9.920;2023-07-08T11:25:20;100985.47;;;33.72;44.64
13968;BME280;39536;52.198;9.920;2023-07-08T11:27:51;100990.81;;;33.87;42.49
13968;BME280;39536;52.198;9.920;2023-07-08T11:30:23;100976.22;;;33.82;42.97
13968;BME280;39536;52.198;9.920;2023-07-08T11:32:57;100971.75;;;33.95;45.77
13968;BME280;39536;52.198;9.920;2023-07-08T11:35:34;100973.00;;;34.14;42.49
13968;BME280;39536;52.198;9.920;2023-07-08T11:38:03;100981.50;;;34.33;41.39
13968;BME280;39536;52.198;9.920;2023-07-08T11:40:30;100974.38;;;34.25;39.86
13968;BME280;39536;52.198;9.920;2023-07-08T11:43:01;100975.06;;;34.34;37.89
13968;BME280;39536;52.198;9.920;2023-07-08T11:45:31;100973.81;;;34.36;39.01
13968;BME280;39536;52.198;9.920;2023-07-08T11:48:05;100970.00;;;34.52;38.27
13968;BME280;39536;52.198;9.920;2023-07-08T11:50:36;100967.31;;;34.52;37.19
13968;BME280;39536;52.198;9.920;2023-07-08T11:53:08;100969.31;;;34.65;36.55
13968;BME280;39536;52.198;9.920;2023-07-08T11:55:37;100969.16;;;34.80;33.76
13968;BME280;39536;52.198;9.920;2023-07-08T11:58:07;100961.25;;;34.78;34.20
13968;BME280;39536;52.198;9.920;2023-07-08T12:00:34;100961.75;;;34.95;34.04
13968;BME280;39536;52.198;9.920;2023-07-08T12:03:19;100961.09;;;35.14;34.76
13968;BME280;39536;52.198;9.920;2023-07-08T12:05:47;100958.03;;;35.31;33.42
13968;BME280;39536;52.198;9.920;2023-07-08T12:08:15;100949.13;;;35.50;34.55
13968;BME280;39536;52.198;9.920;2023-07-08T12:10:47;100947.50;;;35.56;32.92
13968;BME280;39536;52.198;9.920;2023-07-08T12:13:16;100955.22;;;35.66;34.22
13968;BME280;39536;52.198;9.920;2023-07-08T12:15:43;100951.06;;;35.76;33.45
13968;BME280;39536;52.198;9.920;2023-07-08T12:18:14;100954.66;;;35.83;33.07
13968;BME280;39536;52.198;9.920;2023-07-08T12:20:44;100952.53;;;35.79;30.28
13968;BME280;39536;52.198;9.920;2023-07-08T12:23:15;100953.59;;;35.84;29.65
13968;BME280;39536;52.198;9.920;2023-07-08T12:25:42;100946.69;;;35.75;29.22
13968;BME280;39536;52.198;9.920;2023-07-08T12:28:09;100944.63;;;35.71;33.05
13968;BME280;39536;52.198;9.920;2023-07-08T12:30:37;100950.44;;;35.68;32.94
13968;BME280;39536;52.198;9.920;2023-07-08T12:33:10;100945.69;;;35.83;32.37
13968;BME280;39536;52.198;9.920;2023-07-08T12:35:37;100946.28;;;35.92;31.40
13968;BME280;39536;52.198;9.920;2023-07-08T12:38:18;100939.66;;;36.07;30.11
13968;BME280;39536;52.198;9.920;2023-07-08T12:40:47;100932.81;;;36.05;34.09
13968;BME280;39536;52.198;9.920;2023-07-08T12:43:14;100934.44;;;35.86;31.97
13968;BME280;39536;52.198;9.920;2023-07-08T12:45:42;100927.97;;;36.07;30.99
13968;BME280;39536;52.198;9.920;2023-07-08T12:48:09;100921.91;;;36.31;31.04
13968;BME280;39536;52.198;9.920;2023-07-08T12:50:35;100932.78;;;36.25;34.03
13968;BME280;39536;52.198;9.920;2023-07-08T12:53:04;100929.88;;;36.33;31.18
13968;BME280;39536;52.198;9.920;2023-07-08T12:55:35;100932.59;;;36.26;30.04
13968;BME280;39536;52.198;9.920;2023-07-08T12:58:04;100923.41;;;36.14;30.83
13968;BME280;39536;52.198;9.920;2023-07-08T13:00:36;100923.81;;;36.18;31.43
13968;BME280;39536;52.198;9.920;2023-07-08T13:03:05;100932.53;;;35.93;32.12